Time;durP1;ratioP1;P1;durP2;ratioP2;P2;SDS_P1;SDS_P2;PMS_P1;PMS_P2;Temp;Humidity;BMP_temperature;BMP_pressure;BME280_temperature;BME280_humidity;BME280_pressure;Samples;Min_cycle;Max_cycle;Signal;HPM_P1;HPM_P2
2021/05/06 00:02:24;;;;;;;14.23;2.20;;;;;;;-144.99;nan;52370.63;5010577;28;20636;-74
2021/05/06 00:08:15;;;;;;;7.20;3.07;;;;;;;-144.99;nan;52439.94;5027023;28;20734;-73
2021/05/06 00:11:27;;;;;;;19.73;4.67;;;;;;;-144.99;nan;52437.91;5031577;28;20625;-74
2021/05/06 00:34:04;;;;;;;9.80;3.07;;;;;;;-144.99;nan;52417.53;4998615;28;20700;-74
2021/05/06 00:36:39;;;;;;;14.50;3.40;;;;;;;-144.99;nan;52370.63;5031769;28;20638;-74
2021/05/06 00:39:16;;;;;;;11.50;3.27;;;;;;;-144.99;nan;52427.72;5029906;28;20612;-73
2021/05/06 01:04:48;;;;;;;11.13;2.90;;;;;;;-144.99;nan;52435.88;5023432;28;21308;-72
2021/05/06 01:10:25;;;;;;;18.53;3.23;;;;;;;-144.99;nan;52407.31;5027816;28;20629;-72
2021/05/06 01:13:00;;;;;;;9.90;3.20;;;;;;;-144.99;nan;52366.56;5020318;28;20690;-72
2021/05/06 01:15:34;;;;;;;8.23;3.90;;;;;;;-144.99;nan;52419.56;5028607;28;21052;-74
2021/05/06 01:18:06;;;;;;;9.17;2.43;;;;;;;-144.99;nan;52423.63;5026444;28;20624;-72
2021/05/06 01:20:38;;;;;;;14.07;4.33;;;;;;;-144.99;nan;52395.09;5025132;28;20971;-72
2021/05/06 01:23:10;;;;;;;7.40;2.60;;;;;;;-144.99;nan;52419.56;5031219;28;20668;-73
2021/05/06 01:25:51;;;;;;;5.97;2.37;;;;;;;-144.99;nan;52419.56;5020968;28;21187;-74
2021/05/06 01:28:28;;;;;;;9.23;3.37;;;;;;;-144.99;nan;52382.88;5028739;28;20620;-72
2021/05/06 01:31:07;;;;;;;8.47;1.60;;;;;;;-144.99;nan;52421.59;5028025;28;21043;-73
2021/05/06 01:33:41;;;;;;;13.40;3.43;;;;;;;-144.99;nan;52444.03;5028746;28;20667;-72
2021/05/06 01:36:19;;;;;;;19.30;3.70;;;;;;;-144.99;nan;52431.78;5031383;28;20655;-73
2021/05/06 01:39:10;;;;;;;7.70;2.80;;;;;;;-144.99;nan;52395.09;5033012;28;20662;-72
2021/05/06 01:41:56;;;;;;;11.40;4.27;;;;;;;-144.99;nan;52391.03;5026059;28;20641;-73
2021/05/06 01:44:56;;;;;;;10.23;2.60;;;;;;;-144.99;nan;52407.31;5032498;28;20687;-72
2021/05/06 01:47:31;;;;;;;11.53;2.43;;;;;;;-144.99;nan;52444.03;5031925;28;20656;-71
2021/05/06 01:58:43;;;;;;;6.70;2.20;;;;;;;-144.99;nan;52423.63;5026291;28;21278;-71
2021/05/06 02:01:15;;;;;;;7.23;2.00;;;;;;;-144.99;nan;52419.56;5024359;28;20632;-72
2021/05/06 02:03:50;;;;;;;17.70;2.70;;;;;;;-144.99;nan;52415.47;5025725;28;21087;-72
2021/05/06 02:06:24;;;;;;;9.17;2.67;;;;;;;-144.99;nan;52391.03;5029720;28;20644;-73
2021/05/06 02:08:53;;;;;;;5.23;2.30;;;;;;;-144.99;nan;52431.78;5023766;28;21009;-72
2021/05/06 02:11:26;;;;;;;7.57;1.83;;;;;;;-144.99;nan;52407.31;5031002;28;20652;-72
2021/05/06 02:14:01;;;;;;;11.77;3.20;;;;;;;-144.99;nan;52431.78;5033759;28;20656;-72
2021/05/06 02:16:37;;;;;;;7.17;2.40;;;;;;;-144.99;nan;52395.09;5026829;28;20644;-72
2021/05/06 02:19:17;;;;;;;8.63;2.80;;;;;;;-144.99;nan;52433.81;5028111;28;21280;-72
2021/05/06 02:21:52;;;;;;;8.70;1.57;;;;;;;-144.99;nan;52437.91;5029967;28;20675;-73
2021/05/06 02:24:31;;;;;;;12.00;4.20;;;;;;;-144.99;nan;52439.94;5030890;28;20695;-73
2021/05/06 02:27:06;;;;;;;8.47;2.30;;;;;;;-144.99;nan;52399.19;5036691;28;20609;-72
2021/05/06 02:29:40;;;;;;;7.47;3.13;;;;;;;-144.99;nan;52415.47;5027924;28;20613;-71
2021/05/06 02:32:12;;;;;;;11.77;2.97;;;;;;;-144.99;nan;52448.09;5041351;28;20635;-71
2021/05/06 02:34:47;;;;;;;8.70;4.00;;;;;;;-144.99;nan;52386.94;5033145;28;21247;-71
2021/05/06 02:37:18;;;;;;;12.90;3.17;;;;;;;-144.99;nan;52401.22;5033977;28;20636;-72
2021/05/06 02:39:53;;;;;;;10.80;2.27;;;;;;;-144.99;nan;52431.78;5029041;28;20705;-71
2021/05/06 02:42:28;;;;;;;5.63;2.47;;;;;;;-144.99;nan;52433.81;5038232;28;20635;-72
2021/05/06 02:45:03;;;;;;;11.40;2.90;;;;;;;-144.99;nan;52407.31;5026654;28;20652;-71
2021/05/06 02:47:37;;;;;;;14.40;2.73;;;;;;;-144.99;nan;52427.72;5033700;28;20625;-71
2021/05/06 02:50:13;;;;;;;9.07;4.37;;;;;;;-144.99;nan;52391.03;5035417;28;20631;-71
2021/05/06 02:52:51;;;;;;;10.20;2.63;;;;;;;-144.99;nan;52423.63;5030613;28;20623;-71
2021/05/06 02:55:29;;;;;;;12.93;3.47;;;;;;;-144.99;nan;52458.28;5030242;28;20678;-72
2021/05/06 02:58:07;;;;;;;9.07;3.07;;;;;;;-144.99;nan;52427.72;5027482;28;20632;-71
2021/05/06 03:03:34;;;;;;;8.77;2.90;;;;;;;-144.99;nan;52423.63;5032212;28;21061;-71
2021/05/06 03:06:12;;;;;;;12.93;2.67;;;;;;;-144.99;nan;52399.19;5030444;28;20640;-70
2021/05/06 03:08:50;;;;;;;3.33;1.40;;;;;;;-144.99;nan;52399.19;5018006;28;20684;-71
2021/05/06 03:11:41;;;;;;;9.90;2.73;;;;;;;-144.99;nan;52431.78;5029881;28;20629;-71
2021/05/06 03:14:29;;;;;;;13.60;3.37;;;;;;;-144.99;nan;52423.63;5033265;28;20732;-71
2021/05/06 03:22:50;;;;;;;8.00;3.97;;;;;;;-144.99;nan;52382.88;5026954;28;21008;-70
2021/05/06 03:25:26;;;;;;;8.00;2.87;;;;;;;-144.99;nan;52480.72;5033356;28;20643;-71
2021/05/06 03:28:05;;;;;;;9.77;2.50;;;;;;;-144.99;nan;52419.56;5024608;28;20628;-72
2021/05/06 03:42:04;;;;;;;9.63;5.20;;;;;;;-144.99;nan;52364.53;5055703;22;20667;-76
2021/05/06 03:47:47;;;;;;;6.20;2.20;;;;;;;-144.99;nan;52415.47;5067522;28;20650;-78
2021/05/06 04:13:30;;;;;;;17.73;5.37;;;;;;;-144.99;nan;52407.31;5075231;28;20708;-78
2021/05/06 04:19:06;;;;;;;14.20;4.67;;;;;;;-144.99;nan;52413.44;5053154;28;21024;-77
2021/05/06 04:22:06;;;;;;;3.80;1.50;;;;;;;-144.99;nan;52407.31;5065317;28;20634;-76
2021/05/06 04:27:36;;;;;;;5.00;1.87;;;;;;;-144.99;nan;52419.56;5069928;28;20660;-75
2021/05/06 04:35:49;;;;;;;9.47;1.73;;;;;;;-144.99;nan;52403.25;5063479;28;20626;-74
2021/05/06 04:38:25;;;;;;;6.93;3.53;;;;;;;-144.99;nan;52433.81;5069573;28;20627;-74
2021/05/06 04:41:16;;;;;;;16.40;2.83;;;;;;;-144.99;nan;52423.63;5069527;28;20618;-75
2021/05/06 04:50:15;;;;;;;5.93;3.83;;;;;;;-144.99;nan;52386.94;5061159;28;20698;-74
2021/05/06 04:55:26;;;;;;;13.23;6.40;;;;;;;-144.99;nan;52407.31;5065017;28;20618;-75
2021/05/06 04:58:13;;;;;;;6.50;1.70;;;;;;;-144.99;nan;52427.72;5064486;28;20626;-76
2021/05/06 05:03:40;;;;;;;5.73;2.10;;;;;;;-144.99;nan;52386.94;5068017;28;20751;-77
2021/05/06 05:06:16;;;;;;;5.93;2.53;;;;;;;-144.99;nan;52399.19;5069054;28;20665;-75
2021/05/06 05:08:51;;;;;;;4.57;2.00;;;;;;;-144.99;nan;52419.56;5068241;28;20630;-76
2021/05/06 05:11:41;;;;;;;7.63;4.37;;;;;;;-144.99;nan;52374.72;5069083;28;20625;-74
2021/05/06 05:14:28;;;;;;;5.27;1.57;;;;;;;-144.99;nan;52391.03;5068875;28;20987;-76
2021/05/06 05:20:02;;;;;;;8.63;2.57;;;;;;;-144.99;nan;52427.72;4717142;28;10000821;-76
2021/05/06 05:25:29;;;;;;;6.10;1.60;;;;;;;-144.99;nan;52407.31;5065807;28;20633;-76
2021/05/06 05:28:07;;;;;;;8.47;2.87;;;;;;;-144.99;nan;52376.75;5066606;28;20634;-75
2021/05/06 05:30:41;;;;;;;6.87;1.43;;;;;;;-144.99;nan;52444.03;5058101;28;20630;-73
2021/05/06 05:33:16;;;;;;;8.57;2.13;;;;;;;-144.99;nan;52409.38;5066058;28;20653;-75
2021/05/06 05:35:58;;;;;;;9.73;2.37;;;;;;;-144.99;nan;52399.19;5066518;28;20748;-76
2021/05/06 05:38:41;;;;;;;12.40;3.27;;;;;;;-144.99;nan;52399.19;5065226;28;21016;-74
2021/05/06 05:44:26;;;;;;;13.10;2.30;;;;;;;-144.99;nan;52411.41;5059175;28;21296;-73
2021/05/06 05:47:20;;;;;;;9.87;1.87;;;;;;;-144.99;nan;52395.09;5055617;28;20627;-74
2021/05/06 05:55:34;;;;;;;10.20;4.13;;;;;;;-144.99;nan;52407.31;5059660;28;20815;-73
2021/05/06 05:58:09;;;;;;;6.37;3.53;;;;;;;-144.99;nan;52419.56;5063224;28;20625;-72
2021/05/06 06:00:41;;;;;;;9.27;2.40;;;;;;;-144.99;nan;52382.88;5057337;28;20586;-75
2021/05/06 06:03:16;;;;;;;5.00;1.90;;;;;;;-144.99;nan;52391.03;5064062;28;21288;-75
2021/05/06 06:05:53;;;;;;;13.50;2.20;;;;;;;-144.99;nan;52366.56;5065472;28;21130;-76
2021/05/06 06:08:30;;;;;;;7.90;3.70;;;;;;;-144.99;nan;52382.88;5065189;28;20629;-77
2021/05/06 06:11:04;;;;;;;6.47;2.50;;;;;;;-144.99;nan;52374.72;5065816;28;20630;-74
2021/05/06 06:13:39;;;;;;;6.73;2.17;;;;;;;-144.99;nan;52366.56;5063764;28;20646;-75
2021/05/06 06:16:22;;;;;;;8.37;1.83;;;;;;;-144.99;nan;52356.38;5065388;28;21178;-78
2021/05/06 06:18:59;;;;;;;8.97;2.73;;;;;;;-144.99;nan;52407.31;5066226;28;20983;-77
2021/05/06 06:21:40;;;;;;;6.20;3.33;;;;;;;-144.99;nan;52374.72;5065418;28;20730;-76
2021/05/06 06:24:15;;;;;;;8.27;2.80;;;;;;;-144.99;nan;52415.47;5061541;28;20663;-74
2021/05/06 06:26:49;;;;;;;9.37;2.37;;;;;;;-144.99;nan;52372.69;5065131;28;20641;-77
2021/05/06 06:29:29;;;;;;;12.50;7.30;;;;;;;-144.99;nan;52378.78;5067904;28;20633;-75
2021/05/06 06:32:10;;;;;;;7.77;2.87;;;;;;;-144.99;nan;52366.56;5063013;28;23483;-76
2021/05/06 06:34:38;;;;;;;9.23;2.27;;;;;;;-144.99;nan;52382.88;5068242;28;20622;-75
2021/05/06 06:37:13;;;;;;;8.73;1.70;;;;;;;-144.99;nan;52399.19;5068862;28;20998;-76
2021/05/06 06:39:47;;;;;;;6.40;2.50;;;;;;;-144.99;nan;52370.63;5065943;28;20482;-76
2021/05/06 06:42:22;;;;;;;10.17;2.43;;;;;;;-144.99;nan;52382.88;5068759;28;20250;-76
2021/05/06 06:44:56;;;;;;;9.87;2.80;;;;;;;-144.99;nan;52370.63;5062230;28;20547;-77
2021/05/06 06:47:32;;;;;;;10.77;4.43;;;;;;;-144.99;nan;52386.94;5066844;28;20204;-74
2021/05/06 06:50:06;;;;;;;14.37;2.63;;;;;;;-144.99;nan;52372.69;5063922;28;20208;-75
2021/05/06 06:52:38;;;;;;;5.77;2.37;;;;;;;-144.99;nan;52374.72;5065354;28;20269;-77
2021/05/06 06:55:14;;;;;;;11.17;2.07;;;;;;;-144.99;nan;52333.94;5068212;28;20209;-78
2021/05/06 06:57:48;;;;;;;7.03;2.77;;;;;;;-144.99;nan;52329.88;5065130;28;20202;-75
2021/05/06 07:00:23;;;;;;;12.27;2.23;;;;;;;-144.99;nan;52366.56;5067778;28;20233;-75
2021/05/06 07:02:58;;;;;;;13.73;2.30;;;;;;;-144.99;nan;52358.41;5065932;28;20229;-74
2021/05/06 07:05:33;;;;;;;10.13;1.93;;;;;;;-144.99;nan;52378.78;5067454;28;20223;-76
2021/05/06 07:08:23;;;;;;;6.07;2.07;;;;;;;-144.99;nan;52378.78;5067845;28;20520;-76
2021/05/06 07:10:59;;;;;;;10.40;2.33;;;;;;;-144.99;nan;52370.63;5063331;28;20216;-73
2021/05/06 07:13:33;;;;;;;5.20;3.20;;;;;;;-144.99;nan;52391.03;5061301;28;20220;-76
2021/05/06 07:16:10;;;;;;;6.93;2.73;;;;;;;-144.99;nan;52358.41;5062272;28;20685;-74
2021/05/06 07:18:42;;;;;;;12.00;3.67;;;;;;;-144.99;nan;52382.88;5058240;28;20208;-74
2021/05/06 07:21:14;;;;;;;11.37;4.83;;;;;;;-144.99;nan;52374.72;5056794;28;20586;-75
2021/05/06 07:23:48;;;;;;;4.10;1.47;;;;;;;-144.99;nan;52321.72;5064671;28;20497;-76
2021/05/06 07:26:24;;;;;;;7.97;3.00;;;;;;;-144.99;nan;52368.59;5068046;28;20204;-76
2021/05/06 07:28:59;;;;;;;5.50;1.80;;;;;;;-144.99;nan;52374.72;5060597;28;20218;-75
2021/05/06 07:31:31;;;;;;;8.50;2.30;;;;;;;-144.99;nan;52382.88;5066339;28;20208;-75
2021/05/06 07:34:06;;;;;;;8.27;2.87;;;;;;;-144.99;nan;52378.78;5068025;28;20791;-75
2021/05/06 07:36:38;;;;;;;9.10;3.13;;;;;;;-144.99;nan;52374.72;5065216;28;20201;-73
2021/05/06 07:39:12;;;;;;;11.33;4.50;;;;;;;-144.99;nan;52374.72;5067295;28;20201;-77
2021/05/06 07:41:47;;;;;;;11.63;2.43;;;;;;;-144.99;nan;52356.38;5067371;28;20204;-76
2021/05/06 07:44:21;;;;;;;9.70;2.03;;;;;;;-144.99;nan;52321.72;5066160;28;20224;-76
2021/05/06 07:47:09;;;;;;;7.80;2.93;;;;;;;-144.99;nan;52407.31;5067475;28;20215;-79
2021/05/06 07:49:48;;;;;;;12.03;3.27;;;;;;;-144.99;nan;52380.84;5066359;28;20340;-76
2021/05/06 07:52:29;;;;;;;9.77;2.63;;;;;;;-144.99;nan;52329.88;5067531;28;20216;-74
2021/05/06 07:55:04;;;;;;;5.53;2.07;;;;;;;-144.99;nan;52354.34;5062260;28;20822;-75
2021/05/06 07:57:38;;;;;;;10.50;2.30;;;;;;;-144.99;nan;52380.84;5059231;28;20650;-75
2021/05/06 08:00:15;;;;;;;11.50;2.97;;;;;;;-144.99;nan;52391.03;5060267;28;20204;-78
2021/05/06 08:02:50;;;;;;;3.90;2.10;;;;;;;-144.99;nan;52382.88;5066876;28;20239;-77
2021/05/06 08:05:26;;;;;;;12.13;3.07;;;;;;;-144.99;nan;52350.25;5065594;28;20287;-76
2021/05/06 08:08:01;;;;;;;7.80;2.90;;;;;;;-144.99;nan;52382.88;5061779;28;20200;-75
2021/05/06 08:10:36;;;;;;;6.77;2.47;;;;;;;-144.99;nan;52372.69;5066324;28;20694;-75
2021/05/06 08:13:10;;;;;;;6.33;3.10;;;;;;;-144.99;nan;52317.66;5066472;28;20607;-78
2021/05/06 08:15:45;;;;;;;6.10;1.97;;;;;;;-144.99;nan;52311.53;5065570;28;20723;-76
2021/05/06 08:18:20;;;;;;;9.60;3.63;;;;;;;-144.99;nan;52305.41;5066478;28;20219;-77
2021/05/06 08:20:54;;;;;;;7.43;2.13;;;;;;;-144.99;nan;52360.44;5055386;28;20327;-76
2021/05/06 08:23:22;;;;;;;6.47;1.47;;;;;;;-144.99;nan;52382.88;5063945;28;20309;-76
2021/05/06 08:25:57;;;;;;;8.90;2.30;;;;;;;-144.99;nan;52362.50;5066073;28;20212;-76
2021/05/06 08:28:31;;;;;;;9.73;3.40;;;;;;;-144.99;nan;52305.41;5063359;28;20200;-78
2021/05/06 08:31:06;;;;;;;6.67;2.63;;;;;;;-144.99;nan;52338.03;5059142;28;20215;-76
2021/05/06 08:33:40;;;;;;;5.77;1.70;;;;;;;-144.99;nan;52329.88;5066696;28;20780;-78
2021/05/06 08:36:16;;;;;;;6.40;1.70;;;;;;;-144.99;nan;52350.25;5065788;28;20196;-74
2021/05/06 08:38:50;;;;;;;7.10;1.70;;;;;;;-144.99;nan;52319.69;5065595;28;20200;-76
2021/05/06 08:41:26;;;;;;;9.17;2.07;;;;;;;-144.99;nan;52338.03;5060784;28;20201;-76
2021/05/06 08:44:02;;;;;;;10.60;1.70;;;;;;;-144.99;nan;52317.66;5065953;28;20476;-77
2021/05/06 08:46:44;;;;;;;5.57;1.43;;;;;;;-144.99;nan;52289.13;5062827;28;20292;-76
2021/05/06 08:49:19;;;;;;;9.03;1.27;;;;;;;-144.99;nan;52321.72;5064089;28;20197;-75
2021/05/06 08:51:55;;;;;;;6.40;1.63;;;;;;;-144.99;nan;52303.38;5066202;28;20199;-79
2021/05/06 08:54:29;;;;;;;5.97;1.40;;;;;;;-144.99;nan;52315.59;5054153;28;20472;-77
2021/05/06 08:57:04;;;;;;;6.10;2.10;;;;;;;-144.99;nan;52340.06;5063157;28;20227;-76
2021/05/06 08:59:38;;;;;;;7.40;1.83;;;;;;;-144.99;nan;52329.88;5055220;28;20197;-79
2021/05/06 09:02:11;;;;;;;8.13;1.33;;;;;;;-144.99;nan;52354.34;5061831;28;20443;-78
2021/05/06 09:04:46;;;;;;;4.50;1.77;;;;;;;-144.99;nan;52297.25;5059059;28;20212;-81
2021/05/06 09:07:23;;;;;;;5.87;1.43;;;;;;;-144.99;nan;52321.72;5064293;28;20201;-76
2021/05/06 09:09:58;;;;;;;5.67;2.57;;;;;;;-144.99;nan;52325.81;5058371;28;20197;-78
2021/05/06 09:12:45;;;;;;;7.73;2.50;;;;;;;-144.99;nan;52323.75;5062314;28;20263;-80
2021/05/06 09:15:20;;;;;;;5.70;1.73;;;;;;;-144.99;nan;52370.63;5053950;28;20285;-77
2021/05/06 09:17:54;;;;;;;5.37;1.33;;;;;;;-144.99;nan;52317.66;5065133;28;20201;-77
2021/05/06 09:20:29;;;;;;;6.40;1.50;;;;;;;-144.99;nan;52301.34;5063010;28;20315;-82
2021/05/06 09:23:07;;;;;;;11.10;2.23;;;;;;;-144.99;nan;52323.75;5063678;28;20313;-77
2021/05/06 09:25:43;;;;;;;5.93;1.40;;;;;;;-144.99;nan;52307.47;5066765;28;20207;-78
2021/05/06 09:28:20;;;;;;;11.27;1.90;;;;;;;-144.99;nan;52342.09;5063533;28;20211;-79
2021/05/06 09:30:56;;;;;;;5.97;1.87;;;;;;;-144.99;nan;52331.91;5066384;28;20212;-79
2021/05/06 09:33:40;;;;;;;6.97;1.37;;;;;;;-144.99;nan;52329.88;5065775;28;20212;-77
2021/05/06 09:36:20;;;;;;;3.43;1.10;;;;;;;-144.99;nan;52333.94;5066591;28;20197;-75
2021/05/06 09:38:54;;;;;;;5.67;2.63;;;;;;;-144.99;nan;52268.72;5066011;28;20208;-76
2021/05/06 09:41:32;;;;;;;2.90;1.70;;;;;;;-144.99;nan;52327.84;5060828;28;20237;-78
2021/05/06 09:44:16;;;;;;;6.43;1.47;;;;;;;-144.99;nan;52280.97;5060732;28;20226;-78
2021/05/06 09:46:56;;;;;;;4.20;1.17;;;;;;;-144.99;nan;52268.72;5060809;28;20617;-80
2021/05/06 09:49:40;;;;;;;3.57;1.70;;;;;;;-144.99;nan;52278.91;5055805;28;20572;-78
2021/05/06 09:52:14;;;;;;;2.03;1.00;;;;;;;-144.99;nan;52325.81;5070509;28;20236;-76
2021/05/06 09:54:58;;;;;;;10.67;2.07;;;;;;;-144.99;nan;52317.66;5071060;28;20207;-76
2021/05/06 09:57:35;;;;;;;5.93;1.27;;;;;;;-144.99;nan;52301.34;5060669;28;20291;-76
2021/05/06 10:00:23;;;;;;;3.13;1.50;;;;;;;-144.99;nan;52358.41;5063212;28;20204;-76
2021/05/06 10:02:57;;;;;;;3.73;1.40;;;;;;;-144.99;nan;52333.94;5069357;28;20531;-79
2021/05/06 10:05:42;;;;;;;7.60;2.10;;;;;;;-144.99;nan;52366.56;5066376;28;20262;-76
2021/05/06 10:08:18;;;;;;;2.87;1.63;;;;;;;-144.99;nan;52338.03;5070784;28;20743;-81
2021/05/06 10:10:51;;;;;;;3.90;1.10;;;;;;;-144.99;nan;52325.81;5069816;28;20211;-76
2021/05/06 10:13:26;;;;;;;6.40;1.23;;;;;;;-144.99;nan;52350.25;5070685;28;20232;-79
2021/05/06 10:16:00;;;;;;;5.53;1.20;;;;;;;-144.99;nan;52338.03;5062833;28;20201;-76
2021/05/06 10:18:35;;;;;;;3.70;1.33;;;;;;;-144.99;nan;52368.59;5069834;28;20200;-79
2021/05/06 10:21:12;;;;;;;3.57;1.13;;;;;;;-144.99;nan;52309.50;5061472;28;20197;-83
2021/05/06 10:23:49;;;;;;;7.43;2.03;;;;;;;-144.99;nan;52321.72;5066003;28;20240;-77
2021/05/06 10:26:27;;;;;;;5.27;1.23;;;;;;;-144.99;nan;52256.50;5064820;28;20288;-77
2021/05/06 10:29:02;;;;;;;2.83;0.93;;;;;;;-144.99;nan;52297.25;5063867;28;20270;-80
2021/05/06 10:31:39;;;;;;;2.77;1.03;;;;;;;-144.99;nan;52262.63;5068283;28;20619;-79
2021/05/06 10:34:15;;;;;;;6.93;1.20;;;;;;;-144.99;nan;52191.28;5069519;28;20557;-78
2021/05/06 10:36:51;;;;;;;4.10;1.47;;;;;;;-144.99;nan;52203.50;5064115;28;20703;-78
2021/05/06 10:39:25;;;;;;;6.50;1.73;;;;;;;-144.99;nan;52248.34;5066872;28;20243;-78
2021/05/06 10:41:58;;;;;;;5.40;1.70;;;;;;;-144.99;nan;52301.34;5062796;28;20593;-78
2021/05/06 10:44:41;;;;;;;7.90;2.03;;;;;;;-144.99;nan;52338.03;5063813;28;20228;-78
2021/05/06 10:47:14;;;;;;;8.23;2.03;;;;;;;-144.99;nan;52382.88;5071981;28;20209;-73
2021/05/06 10:50:11;;;;;;;5.37;1.37;;;;;;;-144.99;nan;52327.84;5062492;28;20201;-74
2021/05/06 10:52:47;;;;;;;7.73;1.73;;;;;;;-144.99;nan;52378.78;5062323;28;20232;-78
2021/05/06 10:55:38;;;;;;;12.73;4.23;;;;;;;-144.99;nan;52397.13;5057342;28;20206;-76
2021/05/06 10:58:42;;;;;;;11.47;2.00;;;;;;;-144.99;nan;52423.63;5066958;28;20205;-75
2021/05/06 11:01:23;;;;;;;5.10;2.03;;;;;;;-144.99;nan;52413.44;5060845;28;20205;-76
2021/05/06 11:04:34;;;;;;;10.53;2.03;;;;;;;-144.99;nan;52393.06;5063761;28;20225;-75
2021/05/06 11:07:23;;;;;;;5.30;1.30;;;;;;;-144.99;nan;52415.47;5030911;28;20636;-73
2021/05/06 11:10:04;;;;;;;7.10;1.33;;;;;;;-144.99;nan;52395.09;5067770;28;20201;-78
2021/05/06 11:12:57;;;;;;;7.60;1.30;;;;;;;-144.99;nan;52374.72;5067694;28;20248;-76
2021/05/06 11:15:36;;;;;;;7.50;3.40;;;;;;;-144.99;nan;52386.94;5067301;28;20227;-80
2021/05/06 11:18:13;;;;;;;5.37;2.07;;;;;;;-144.99;nan;52264.66;5066700;28;20255;-75
2021/05/06 11:20:56;;;;;;;4.83;2.17;;;;;;;-144.99;nan;52234.09;5065891;28;20226;-77
2021/05/06 11:23:36;;;;;;;5.17;2.10;;;;;;;-144.99;nan;52219.81;5063666;28;20310;-78
2021/05/06 11:26:18;;;;;;;9.23;2.43;;;;;;;-144.99;nan;52230.00;5067212;28;20592;-77
2021/05/06 11:28:59;;;;;;;10.87;1.70;;;;;;;-144.99;nan;52166.81;5064584;28;20211;-78
2021/05/06 11:31:56;;;;;;;3.63;1.60;;;;;;;-144.99;nan;52174.97;5064528;28;20664;-80
2021/05/06 11:34:38;;;;;;;4.53;1.20;;;;;;;-144.99;nan;52354.34;5064975;28;20411;-77
2021/05/06 11:37:21;;;;;;;3.90;1.03;;;;;;;-144.99;nan;52344.16;5064834;28;20208;-80
2021/05/06 11:39:58;;;;;;;9.90;2.33;;;;;;;-144.99;nan;52378.78;5066315;28;20209;-76
2021/05/06 11:42:38;;;;;;;10.10;2.00;;;;;;;-144.99;nan;52401.22;5068511;28;20289;-76
2021/05/06 11:45:24;;;;;;;7.07;1.47;;;;;;;-144.99;nan;52358.41;5063612;28;20588;-79
2021/05/06 11:48:00;;;;;;;6.10;1.00;;;;;;;-144.99;nan;52358.41;5060765;28;20208;-82
2021/05/06 11:50:36;;;;;;;5.73;1.33;;;;;;;-144.99;nan;52283.00;5068772;28;20270;-82
2021/05/06 11:53:16;;;;;;;3.03;1.30;;;;;;;-144.99;nan;52221.84;5056903;28;20225;-80
2021/05/06 11:55:51;;;;;;;8.77;1.47;;;;;;;-144.99;nan;52234.09;5062533;28;20410;-81
2021/05/06 11:58:31;;;;;;;6.47;1.77;;;;;;;-144.99;nan;52211.66;5059877;28;20209;-79
2021/05/06 12:01:06;;;;;;;4.80;1.47;;;;;;;-144.99;nan;52346.19;5060761;28;20258;-78
2021/05/06 12:03:46;;;;;;;5.63;2.17;;;;;;;-144.99;nan;52317.66;5068287;28;20236;-77
2021/05/06 12:06:33;;;;;;;2.80;1.27;;;;;;;-144.99;nan;52195.34;5064546;28;20216;-76
2021/05/06 12:09:10;;;;;;;6.00;1.87;;;;;;;-144.99;nan;52305.41;5056199;28;20562;-75
2021/05/06 12:11:46;;;;;;;2.47;1.20;;;;;;;-144.99;nan;52293.19;5061763;28;20304;-77
2021/05/06 12:14:30;;;;;;;5.40;2.30;;;;;;;-144.99;nan;52293.19;5067324;28;20205;-81
2021/05/06 12:17:05;;;;;;;4.73;1.73;;;;;;;-144.99;nan;52321.72;5061699;28;20201;-80
2021/05/06 12:19:47;;;;;;;4.03;1.27;;;;;;;-144.99;nan;52344.16;5062226;28;20204;-78
2021/05/06 12:22:22;;;;;;;4.60;1.30;;;;;;;-144.99;nan;52346.19;5064899;28;20289;-79
2021/05/06 12:25:00;;;;;;;8.20;2.23;;;;;;;-144.99;nan;52342.09;5059905;28;20289;-79
2021/05/06 12:27:37;;;;;;;7.03;1.70;;;;;;;-144.99;nan;52388.97;5064040;28;20232;-79
2021/05/06 12:30:18;;;;;;;7.90;1.60;;;;;;;-144.99;nan;52325.81;5063884;28;20216;-80
2021/05/06 12:32:53;;;;;;;4.33;1.53;;;;;;;-144.99;nan;52386.94;5065191;28;20603;-77
2021/05/06 12:35:28;;;;;;;7.07;1.57;;;;;;;-144.99;nan;52303.38;5066564;28;20200;-80
2021/05/06 12:38:03;;;;;;;7.20;1.40;;;;;;;-144.99;nan;52295.22;5063641;28;20585;-78
2021/05/06 12:40:37;;;;;;;6.90;1.50;;;;;;;-144.99;nan;52289.13;5066901;28;20303;-80
2021/05/06 12:43:27;;;;;;;5.60;1.30;;;;;;;-144.99;nan;52309.50;5060919;28;20238;-81
2021/05/06 12:46:11;;;;;;;5.17;3.53;;;;;;;-144.99;nan;52268.72;5056168;28;20209;-80
2021/05/06 12:48:54;;;;;;;5.10;1.30;;;;;;;-144.99;nan;52289.13;5065668;28;20215;-77
2021/05/06 12:51:37;;;;;;;8.47;2.33;;;;;;;-144.99;nan;52223.88;5061823;28;20285;-82
2021/05/06 12:54:15;;;;;;;1.97;1.10;;;;;;;-144.99;nan;52232.03;5058098;28;20201;-77
2021/05/06 12:56:49;;;;;;;5.93;1.20;;;;;;;-144.99;nan;52276.88;5060377;28;20745;-79
2021/05/06 12:59:31;;;;;;;5.63;1.10;;;;;;;-144.99;nan;52260.56;5057139;28;20212;-78
2021/05/06 13:02:12;;;;;;;4.23;1.40;;;;;;;-144.99;nan;52293.19;5054954;28;20231;-78
2021/05/06 13:04:51;;;;;;;2.90;0.93;;;;;;;-144.99;nan;52325.81;5061580;28;20704;-78
2021/05/06 13:09:51;;;;;;;7.70;2.03;;;;;;;-144.99;nan;52252.44;5020925;28;20226;-65
2021/05/06 13:12:19;;;;;;;10.43;1.27;;;;;;;-144.99;nan;52268.72;5029352;28;20400;-66
2021/05/06 13:15:04;;;;;;;3.60;1.00;;;;;;;-144.99;nan;52295.22;5038440;28;20206;-66
2021/05/06 13:17:33;;;;;;;2.53;1.20;;;;;;;-144.99;nan;52313.56;5022366;28;20207;-65
2021/05/06 13:20:17;;;;;;;2.93;1.13;;;;;;;-144.99;nan;52293.19;5026777;28;20233;-66
2021/05/06 13:23:00;;;;;;;6.77;1.13;;;;;;;-144.99;nan;52262.63;5018343;28;20262;-66
2021/05/06 13:25:54;;;;;;;5.10;1.50;;;;;;;-144.99;nan;52299.31;5032065;28;20275;-65
2021/05/06 13:28:41;;;;;;;5.10;0.97;;;;;;;-144.99;nan;52289.13;5027472;28;20695;-64
2021/05/06 13:31:12;;;;;;;6.23;1.33;;;;;;;-144.99;nan;52278.91;5033066;28;20202;-65
2021/05/06 13:33:40;;;;;;;2.97;1.03;;;;;;;-144.99;nan;52238.16;5026177;28;20209;-65
2021/05/06 13:36:07;;;;;;;8.00;1.50;;;;;;;-144.99;nan;52321.72;5032669;28;20289;-67
2021/05/06 13:38:50;;;;;;;5.80;1.60;;;;;;;-144.99;nan;52348.22;5033111;28;20221;-68
2021/05/06 13:41:19;;;;;;;6.07;2.07;;;;;;;-144.99;nan;52329.88;5031093;28;20228;-63
2021/05/06 13:43:47;;;;;;;5.23;1.37;;;;;;;-144.99;nan;52227.97;5032471;28;20221;-67
2021/05/06 13:46:13;;;;;;;4.30;1.07;;;;;;;-144.99;nan;52280.97;5032398;28;20208;-66
2021/05/06 13:48:40;;;;;;;11.07;2.23;;;;;;;-144.99;nan;52260.56;5032300;28;20226;-65
2021/05/06 13:51:09;;;;;;;6.77;1.37;;;;;;;-144.99;nan;52293.19;5032941;28;20622;-64
2021/05/06 13:53:35;;;;;;;3.00;1.60;;;;;;;-144.99;nan;52256.50;5031870;28;20296;-65
2021/05/06 13:56:01;;;;;;;2.43;1.03;;;;;;;-144.99;nan;52256.50;5027155;28;20211;-64
2021/05/06 13:58:28;;;;;;;7.10;3.50;;;;;;;-144.99;nan;52297.25;5028580;28;20234;-65
2021/05/06 14:00:54;;;;;;;4.10;1.33;;;;;;;-144.99;nan;52276.88;5026788;28;20210;-66
2021/05/06 14:03:20;;;;;;;5.00;1.57;;;;;;;-144.99;nan;52250.38;5031005;28;20206;-64
2021/05/06 14:05:46;;;;;;;4.30;1.80;;;;;;;-144.99;nan;52301.34;5032221;28;20703;-65
2021/05/06 14:08:14;;;;;;;4.13;1.00;;;;;;;-144.99;nan;52276.88;5025079;28;20222;-69
2021/05/06 14:10:40;;;;;;;7.27;1.57;;;;;;;-144.99;nan;52333.94;5026589;28;20226;-65
2021/05/06 14:13:09;;;;;;;6.10;2.17;;;;;;;-144.99;nan;52285.03;5029270;28;20203;-64
2021/05/06 14:15:36;;;;;;;5.83;1.07;;;;;;;-144.99;nan;52260.56;5025643;28;20206;-66
2021/05/06 14:18:03;;;;;;;6.40;1.77;;;;;;;-144.99;nan;52280.97;5027237;28;20467;-68
2021/05/06 14:20:29;;;;;;;4.87;1.23;;;;;;;-144.99;nan;52256.50;5028097;28;20207;-66
2021/05/06 14:22:58;;;;;;;3.53;1.40;;;;;;;-144.99;nan;52260.56;5027805;28;20206;-66
2021/05/06 14:25:24;;;;;;;2.67;0.97;;;;;;;-144.99;nan;52280.97;5006725;28;20540;-64
2021/05/06 14:27:50;;;;;;;4.57;1.13;;;;;;;-144.99;nan;52311.53;5033077;28;20210;-65
2021/05/06 14:30:19;;;;;;;2.60;1.47;;;;;;;-144.99;nan;52272.81;5031633;28;20219;-64
2021/05/06 14:32:49;;;;;;;4.30;1.30;;;;;;;-144.99;nan;52272.81;5030018;28;20297;-66
2021/05/06 14:35:18;;;;;;;2.57;1.07;;;;;;;-144.99;nan;52289.13;5032275;28;20202;-65
2021/05/06 14:37:45;;;;;;;3.57;0.93;;;;;;;-144.99;nan;52266.69;5031049;28;20215;-65
2021/05/06 14:40:12;;;;;;;4.60;1.43;;;;;;;-144.99;nan;52268.72;5028702;28;20230;-65
2021/05/06 14:42:38;;;;;;;7.63;2.53;;;;;;;-144.99;nan;52244.28;5031640;28;20206;-66